Aureola, Iowa
Current Conditions -  °F | °C
As of 2:55 AM on Thursday 23 Oct 2014 (Local Time) from KCCY Reporting Station
Light Rain Light Rain  
Wind Chill: 44°   Ceiling: 6000
Heat Index: 48°   Visibility: 6mi
Dew Point: 45°   Wind: 10mph
Humidity: 87%   Direction: 170°S
Pressure: 30.1"   Gusts: NA
Location:  42.9618°N, 92.9184°W
Report Text: KCCY 230755Z AUTO 17009KT 6SM -RA SCT019 BKN060 OVC090 09/07 A3010 RMK AO2 P0002
Loading
Personal Weather Stations






























Interactive Weather Map New forecast layout! Learn more

10-Day Weather Forecast

Advertisements
Track Severe Weather on mobile